Time;durP1;ratioP1;P1;durP2;ratioP2;P2;SDS_P1;SDS_P2;PMS_P1;PMS_P2;Temp;Humidity;BMP_temperature;BMP_pressure;BME280_temperature;BME280_humidity;BME280_pressure;Samples;Min_cycle;Max_cycle;Signal;HPM_P1;HPM_P2
2021/07/05 00:00:17;;;;;;;;;;;;;;;21.51;57.07;100434.03;2211723;39;113906;-56
2021/07/05 00:01:49;;;;;;;;;;;;;;;21.49;56.98;100436.34;2210093;39;113692;-56
2021/07/05 00:03:21;;;;;;;;;;;;;;;21.47;57.49;100437.84;2215922;39;113684;-56
2021/07/05 00:04:53;;;;;;;;;;;;;;;21.47;57.38;100438.66;2211767;39;114744;-56
2021/07/05 00:06:25;;;;;;;;;;;;;;;21.49;56.97;100435.50;2210783;39;115124;-56
2021/07/05 00:07:57;;;;;;;;;;;;;;;21.49;57.34;100436.34;2210299;39;114806;-56
2021/07/05 00:09:29;;;;;;;;;;;;;;;21.48;57.08;100443.16;2211753;39;115448;-56
2021/07/05 00:11:01;;;;;;;;;;;;;;;21.52;57.22;100441.34;2209537;39;114986;-56
2021/07/05 00:12:33;;;;;;;;;;;;;;;21.49;56.87;100433.53;2211144;39;114839;-56
2021/07/05 00:14:05;;;;;;;;;;;;;;;21.48;57.27;100440.34;2211549;39;115300;-56
2021/07/05 00:15:37;;;;;;;;;;;;;;;21.46;57.17;100434.19;2211711;39;113935;-56
2021/07/05 00:17:09;;;;;;;;;;;;;;;21.44;57.21;100442.13;2211108;39;114726;-55
2021/07/05 00:18:41;;;;;;;;;;;;;;;21.44;57.33;100438.50;2210737;39;114939;-56
2021/07/05 00:20:13;;;;;;;;;;;;;;;21.45;57.11;100429.72;2211365;39;113961;-55
2021/07/05 00:21:45;;;;;;;;;;;;;;;21.48;57.05;100437.53;2211825;39;114770;-55
2021/07/05 00:23:17;;;;;;;;;;;;;;;21.48;57.20;100439.50;2207694;39;115139;-56
2021/07/05 00:24:49;;;;;;;;;;;;;;;21.47;56.84;100435.03;2210524;39;114790;-56
2021/07/05 00:26:21;;;;;;;;;;;;;;;21.46;57.15;100434.19;2208364;39;116182;-56
2021/07/05 00:27:53;;;;;;;;;;;;;;;21.45;56.93;100431.69;2208915;39;114563;-55
2021/07/05 00:29:24;;;;;;;;;;;;;;;21.42;57.05;100433.19;2211472;39;115509;-58
2021/07/05 00:30:56;;;;;;;;;;;;;;;21.43;56.88;100439.66;2210910;39;115390;-56
2021/07/05 00:32:28;;;;;;;;;;;;;;;21.45;57.06;100440.97;2209057;39;115856;-56
2021/07/05 00:34:00;;;;;;;;;;;;;;;21.44;57.08;100438.50;2209782;39;115610;-56
2021/07/05 00:35:33;;;;;;;;;;;;;;;21.47;56.76;100432.22;2211414;39;115741;-56
2021/07/05 00:37:04;;;;;;;;;;;;;;;21.46;56.80;100428.56;2210104;39;116442;-56
2021/07/05 00:38:36;;;;;;;;;;;;;;;21.44;56.83;100433.69;2208947;39;114557;-56
2021/07/05 00:40:09;;;;;;;;;;;;;;;21.41;56.97;100431.53;2209344;39;115581;-56
2021/07/05 00:41:41;;;;;;;;;;;;;;;21.42;56.85;100429.56;2210428;39;115758;-56
2021/07/05 00:43:13;;;;;;;;;;;;;;;21.46;56.92;100428.56;2215685;39;115999;-56
2021/07/05 00:44:45;;;;;;;;;;;;;;;21.44;56.76;100432.88;2211274;39;115793;-56
2021/07/05 00:46:17;;;;;;;;;;;;;;;21.40;56.80;100429.88;2213007;39;115956;-56
2021/07/05 00:47:49;;;;;;;;;;;;;;;21.43;56.69;100426.44;2208749;39;114038;-56
2021/07/05 00:49:21;;;;;;;;;;;;;;;21.41;56.61;100423.09;2211040;39;113826;-56
2021/07/05 00:50:52;;;;;;;;;;;;;;;21.40;56.88;100424.25;2209995;39;114185;-56
2021/07/05 00:52:24;;;;;;;;;;;;;;;21.46;56.68;100425.75;2208206;39;113752;-55
2021/07/05 00:53:56;;;;;;;;;;;;;;;21.45;56.60;100431.69;2211419;39;114106;-56
2021/07/05 00:55:29;;;;;;;;;;;;;;;21.43;56.51;100423.63;2211095;39;113872;-56
2021/07/05 00:57:01;;;;;;;;;;;;;;;21.41;57.02;100430.72;2210011;39;115362;-56
2021/07/05 00:58:33;;;;;;;;;;;;;;;21.42;56.65;100419.16;2211871;39;113672;-56
2021/07/05 01:00:06;;;;;;;;;;;;;;;21.42;56.83;100427.56;2210927;39;113650;-56
2021/07/05 01:01:38;;;;;;;;;;;;;;;21.35;57.06;100421.59;2211227;39;114683;-56
2021/07/05 01:03:10;;;;;;;;;;;;;;;21.41;56.66;100428.72;2211415;39;113644;-56
2021/07/05 01:04:42;;;;;;;;;;;;;;;21.42;56.48;100419.16;2211877;39;113966;-56
2021/07/05 01:06:14;;;;;;;;;;;;;;;21.43;56.54;100418.00;2210922;39;113905;-56
2021/07/05 01:07:47;;;;;;;;;;;;;;;21.37;56.80;100415.66;2213201;39;113751;-56
2021/07/05 01:09:19;;;;;;;;;;;;;;;21.41;56.79;100423.09;2211467;39;113953;-56
2021/07/05 01:10:50;;;;;;;;;;;;;;;21.38;56.58;100418.16;2210596;39;113926;-56
2021/07/05 01:12:22;;;;;;;;;;;;;;;21.39;56.46;100416.16;2211148;39;114267;-56
2021/07/05 01:13:54;;;;;;;;;;;;;;;21.37;56.90;100421.28;2211429;39;114993;-56
2021/07/05 01:15:28;;;;;;;;;;;;;;;21.33;56.77;100420.28;2210680;39;115197;-56
2021/07/05 01:17:01;;;;;;;;;;;;;;;21.36;56.77;100420.44;2211375;39;114866;-55
2021/07/05 01:18:33;;;;;;;;;;;;;;;21.37;56.58;100418.47;2207485;39;114991;-56
2021/07/05 01:20:05;;;;;;;;;;;;;;;21.37;56.47;100412.84;2209530;39;114452;-56
2021/07/05 01:21:37;;;;;;;;;;;;;;;21.35;56.84;100407.53;2211179;39;114815;-56
2021/07/05 01:23:10;;;;;;;;;;;;;;;21.34;56.65;100402.28;2208937;39;114825;-56
2021/07/05 01:24:43;;;;;;;;;;;;;;;21.36;56.66;100405.56;2211133;39;115031;-61
2021/07/05 01:26:15;;;;;;;;;;;;;;;21.32;56.54;100408.22;2210377;39;114881;-56
2021/07/05 01:27:47;;;;;;;;;;;;;;;21.33;56.83;100415.50;2209989;39;115491;-56
2021/07/05 01:29:20;;;;;;;;;;;;;;;21.32;56.92;100408.22;2207937;39;114009;-55
2021/07/05 01:30:52;;;;;;;;;;;;;;;21.33;56.81;100414.66;2210860;39;115857;-56
2021/07/05 01:32:23;;;;;;;;;;;;;;;21.34;56.85;100419.13;2211188;39;115844;-56
2021/07/05 01:33:56;;;;;;;;;;;;;;;21.35;56.74;100410.34;2211363;39;115762;-56
2021/07/05 01:35:28;;;;;;;;;;;;;;;21.32;56.82;100410.19;2210331;39;115495;-56
2021/07/05 01:37:00;;;;;;;;;;;;;;;21.33;56.54;100406.22;2211026;39;115574;-56
2021/07/05 01:38:32;;;;;;;;;;;;;;;21.34;56.44;100408.72;2210412;39;115839;-56
2021/07/05 01:40:05;;;;;;;;;;;;;;;21.36;56.53;100414.00;2209766;39;115532;-56
2021/07/05 01:41:37;;;;;;;;;;;;;;;21.34;56.49;100410.69;2214624;39;115998;-56
2021/07/05 01:43:09;;;;;;;;;;;;;;;21.33;56.49;100401.44;2211560;39;115643;-56
2021/07/05 01:44:41;;;;;;;;;;;;;;;21.30;56.60;100411.34;2211589;39;114790;-56
2021/07/05 01:46:13;;;;;;;;;;;;;;;21.33;56.54;100411.84;2211075;39;116118;-57
2021/07/05 01:47:45;;;;;;;;;;;;;;;21.35;56.68;100415.16;2208185;39;114665;-56
2021/07/05 01:49:18;;;;;;;;;;;;;;;21.35;56.49;100403.94;2209321;39;115892;-56
2021/07/05 01:50:49;;;;;;;;;;;;;;;21.35;56.57;100406.75;2210649;39;114627;-56
2021/07/05 01:52:21;;;;;;;;;;;;;;;21.33;56.69;100401.44;2216306;39;115483;-56
2021/07/05 01:53:53;;;;;;;;;;;;;;;21.27;56.55;100399.94;2208368;39;114072;-56
2021/07/05 01:55:31;;;;;;;;;;;;;;;21.30;56.74;100393.66;2210614;39;113697;-56
2021/07/05 01:57:03;;;;;;;;;;;;;;;21.31;56.40;100389.69;2211092;39;113757;-56
2021/07/05 01:58:40;;;;;;;;;;;;;;;21.30;56.48;100394.47;2211497;39;113619;-56
2021/07/05 02:00:16;;;;;;;;;;;;;;;21.33;56.44;100401.44;2211388;39;113821;-55
2021/07/05 02:01:48;;;;;;;;;;;;;;;21.35;56.56;100390.69;2211267;39;113777;-56
2021/07/05 02:03:20;;;;;;;;;;;;;;;21.30;56.70;100394.47;2209222;39;114018;-56
2021/07/05 02:04:52;;;;;;;;;;;;;;;21.29;56.75;100397.63;2208323;39;115012;-56
2021/07/05 02:06:24;;;;;;;;;;;;;;;21.30;56.31;100396.47;2213259;39;113981;-56
2021/07/05 02:07:56;;;;;;;;;;;;;;;21.28;56.43;100402.41;2210789;39;113752;-56
2021/07/05 02:09:28;;;;;;;;;;;;;;;21.27;56.51;100397.94;2211496;39;113600;-56
2021/07/05 02:11:00;;;;;;;;;;;;;;;21.30;56.65;100396.47;2210830;39;114242;-56
2021/07/05 02:12:31;;;;;;;;;;;;;;;21.27;56.39;100386.72;2210704;39;113877;-55
2021/07/05 02:14:05;;;;;;;;;;;;;;;21.29;56.61;100397.63;2216404;39;113777;-55
2021/07/05 02:15:38;;;;;;;;;;;;;;;21.30;56.54;100394.47;2209925;39;113891;-56
2021/07/05 02:17:11;;;;;;;;;;;;;;;21.29;56.28;100392.00;2209758;39;114874;-56
2021/07/05 02:18:43;;;;;;;;;;;;;;;21.26;56.33;100387.03;2210634;39;114812;-56
2021/07/05 02:20:20;;;;;;;;;;;;;;;21.27;56.38;100386.72;2210870;39;114791;-55
2021/07/05 02:21:52;;;;;;;;;;;;;;;21.30;56.48;100388.84;2210891;39;115150;-56
2021/07/05 02:23:24;;;;;;;;;;;;;;;21.30;56.43;100379.63;2210895;39;115366;-56
2021/07/05 02:24:56;;;;;;;;;;;;;;;21.30;56.57;100380.41;2210436;39;115180;-56
2021/07/05 02:26:28;;;;;;;;;;;;;;;21.32;56.39;100379.28;2209959;39;115132;-56
2021/07/05 02:28:01;;;;;;;;;;;;;;;21.24;56.64;100384.56;2207767;39;114856;-56
2021/07/05 02:29:33;;;;;;;;;;;;;;;21.30;56.56;100388.06;2207507;39;114930;-55
2021/07/05 02:31:07;;;;;;;;;;;;;;;21.27;56.77;100388.69;2210870;39;113954;-56
2021/07/05 02:32:41;;;;;;;;;;;;;;;21.29;56.53;100392.00;2211109;39;115289;-56
2021/07/05 02:34:13;;;;;;;;;;;;;;;21.22;56.74;100384.03;2211376;39;114877;-56
2021/07/05 02:35:45;;;;;;;;;;;;;;;21.27;56.43;100395.13;2213425;39;114283;-56
2021/07/05 02:37:17;;;;;;;;;;;;;;;21.26;56.30;100390.66;2209039;39;115448;-56
2021/07/05 02:38:49;;;;;;;;;;;;;;;21.25;56.71;100388.19;2209820;39;116324;-56
2021/07/05 02:40:22;;;;;;;;;;;;;;;21.28;56.61;100385.56;2208886;39;115646;-56
2021/07/05 02:41:54;;;;;;;;;;;;;;;21.28;56.35;100387.53;2209396;39;115550;-56
2021/07/05 02:43:25;;;;;;;;;;;;;;;21.28;56.33;100385.56;2207302;39;116099;-56
2021/07/05 02:44:57;;;;;;;;;;;;;;;21.27;56.42;100386.72;2206719;39;115901;-56
2021/07/05 02:46:28;;;;;;;;;;;;;;;21.28;56.65;100379.09;2207603;39;115548;-56
2021/07/05 02:48:02;;;;;;;;;;;;;;;21.26;56.39;100389.84;2209786;39;115140;-56
2021/07/05 02:49:33;;;;;;;;;;;;;;;21.23;56.50;100384.88;2210117;39;115292;-55
2021/07/05 02:51:05;;;;;;;;;;;;;;;21.24;56.62;100380.91;2211034;39;116061;-58
2021/07/05 02:52:38;;;;;;;;;;;;;;;21.21;56.58;100390.81;2208826;39;116152;-56
2021/07/05 02:54:12;;;;;;;;;;;;;;;21.24;56.48;100384.56;2211163;39;114837;-56
2021/07/05 02:55:44;;;;;;;;;;;;;;;21.19;56.62;100389.50;2211672;39;115762;-56
2021/07/05 02:57:31;;;;;;;;;;;;;;;21.18;56.55;100380.25;2214262;39;115549;-56
2021/07/05 02:59:03;;;;;;;;;;;;;;;21.23;56.76;100382.91;2212045;39;113743;-56
2021/07/05 03:00:36;;;;;;;;;;;;;;;21.24;56.65;100392.16;2211162;39;113656;-56
2021/07/05 03:02:08;;;;;;;;;;;;;;;21.26;56.43;100392.66;2212297;39;113695;-56
2021/07/05 03:03:40;;;;;;;;;;;;;;;21.26;56.21;100393.47;2208612;39;113939;-56
2021/07/05 03:05:12;;;;;;;;;;;;;;;21.20;56.38;100406.03;2208846;39;113842;-58
2021/07/05 03:06:44;;;;;;;;;;;;;;;21.25;56.56;100400.28;2210915;39;113685;-56
2021/07/05 03:08:16;;;;;;;;;;;;;;;21.24;56.44;100387.38;2210122;39;113826;-56
2021/07/05 03:09:47;;;;;;;;;;;;;;;21.25;56.44;100388.19;2211557;39;114009;-56
2021/07/05 03:11:19;;;;;;;;;;;;;;;21.27;56.44;100381.09;2210738;39;114138;-56
2021/07/05 03:12:51;;;;;;;;;;;;;;;21.28;56.67;100399.59;2210482;39;113945;-56
2021/07/05 03:14:23;;;;;;;;;;;;;;;21.23;56.72;100394.13;2210959;39;113697;-56
2021/07/05 03:15:55;;;;;;;;;;;;;;;21.21;56.35;100396.44;2211707;39;115017;-56
2021/07/05 03:17:27;;;;;;;;;;;;;;;21.24;56.57;100394.97;2211725;39;113574;-56
2021/07/05 03:18:59;;;;;;;;;;;;;;;21.23;56.39;100396.94;2211399;39;114147;-56
2021/07/05 03:20:38;;;;;;;;;;;;;;;21.24;56.48;100392.16;2214219;39;114109;-56
2021/07/05 03:22:10;;;;;;;;;;;;;;;21.22;56.43;100389.66;2211252;39;114812;-56
2021/07/05 03:23:41;;;;;;;;;;;;;;;21.23;56.60;100390.50;2212654;39;114936;-56
2021/07/05 03:25:15;;;;;;;;;;;;;;;21.24;56.34;100394.97;2211264;39;114960;-56
2021/07/05 03:26:46;;;;;;;;;;;;;;;21.22;56.57;100397.25;2211424;39;114775;-56
2021/07/05 03:28:18;;;;;;;;;;;;;;;21.22;56.50;100392.47;2211889;39;114767;-56
2021/07/05 03:29:50;;;;;;;;;;;;;;;21.26;56.37;100398.25;2211734;39;114825;-56
2021/07/05 03:31:22;;;;;;;;;;;;;;;21.23;56.76;100390.50;2209085;39;115063;-56
2021/07/05 03:32:54;;;;;;;;;;;;;;;21.22;56.49;100403.72;2214959;39;115196;-61
2021/07/05 03:34:26;;;;;;;;;;;;;;;21.22;56.65;100391.66;2206590;39;113806;-56
2021/07/05 03:35:58;;;;;;;;;;;;;;;21.22;56.71;100397.25;2211570;39;114814;-56
2021/07/05 03:37:29;;;;;;;;;;;;;;;21.17;56.88;100395.44;2211504;39;115338;-56
2021/07/05 03:39:02;;;;;;;;;;;;;;;21.19;56.82;100392.31;2210194;39;115125;-56
2021/07/05 03:40:38;;;;;;;;;;;;;;;21.18;56.62;100393.44;2210380;39;115256;-56
2021/07/05 03:42:09;;;;;;;;;;;;;;;21.19;56.69;100395.94;2212414;39;113749;-56
2021/07/05 03:43:41;;;;;;;;;;;;;;;21.17;56.78;100403.03;2210966;39;115928;-56
2021/07/05 03:45:14;;;;;;;;;;;;;;;21.18;56.59;100391.47;2211515;39;114931;-56
2021/07/05 03:46:46;;;;;;;;;;;;;;;21.18;56.59;100402.72;2210854;39;115552;-56
2021/07/05 03:48:18;;;;;;;;;;;;;;;21.13;57.03;100408.47;2211311;39;115606;-56
2021/07/05 03:49:50;;;;;;;;;;;;;;;21.14;56.93;100410.13;2211064;39;115415;-56
2021/07/05 03:51:22;;;;;;;;;;;;;;;21.12;56.86;100408.78;2211568;39;115773;-56
2021/07/05 03:52:55;;;;;;;;;;;;;;;21.11;56.97;100407.97;2211593;39;115563;-56
2021/07/05 03:54:30;;;;;;;;;;;;;;;21.16;57.18;100401.41;2211657;39;115693;-56
2021/07/05 03:56:03;;;;;;;;;;;;;;;21.20;56.79;100406.03;2211299;39;115579;-55
2021/07/05 03:57:34;;;;;;;;;;;;;;;21.20;56.86;100408.03;2211588;39;115645;-56
2021/07/05 04:01:54;;;;;;;;;;;;;;;21.18;56.97;100399.91;2190037;39;114357;-56
2021/07/05 04:09:32;;;;;;;;;;;;;;;;;;;;;
2021/07/05 04:11:29;;;;;;;;;;;;;;;21.10;57.30;100405.47;2190376;39;113810;-55
2021/07/05 04:16:10;;;;;;;;;;;;;;;21.15;57.10;100419.41;2181887;39;113804;-55
2021/07/05 04:21:08;;;;;;;;;;;;;;;21.13;57.13;100416.06;2204680;39;113800;-55
2021/07/05 04:23:26;;;;;;;;;;;;;;;;;;;;;
2021/07/05 04:34:47;;;;;;;;;;;;;;;21.07;57.56;100415.38;2190410;39;113800;-55
2021/07/05 04:37:25;;;;;;;;;;;;;;;;;;;;;
2021/07/05 04:39:18;;;;;;;;;;;;;;;21.10;57.29;100413.91;2188228;39;113907;-54
2021/07/05 04:41:15;;;;;;;;;;;;;;;21.11;57.17;100421.19;2166981;40;113899;-55
2021/07/05 04:43:14;;;;;;;;;;;;;;;21.08;57.63;100421.81;2162259;40;113910;-55
2021/07/05 04:45:07;;;;;;;;;;;;;;;21.07;57.33;100418.19;2171181;40;114105;-55
2021/07/05 04:47:16;;;;;;;;;;;;;;;21.13;57.04;100416.06;2151776;40;113994;-55
2021/07/05 04:49:05;;;;;;;;;;;;;;;21.13;56.98;100416.91;2164818;40;113885;-55
2021/07/05 04:51:18;;;;;;;;;;;;;;;;;;;;;
2021/07/05 05:00:29;;;;;;;;;;;;;;;21.21;57.57;100412.50;2148814;40;113785;-56
2021/07/05 05:02:27;;;;;;;;;;;;;;;21.23;57.25;100418.59;2164051;40;114334;-55
2021/07/05 05:04:24;;;;;;;;;;;;;;;21.23;57.31;100419.44;2162755;40;113942;-55
2021/07/05 05:06:16;;;;;;;;;;;;;;;21.26;57.52;100421.56;2160490;40;113879;-55
2021/07/05 05:08:26;;;;;;;;;;;;;;;21.29;57.59;100409.69;2163227;40;113950;-55
2021/07/05 05:10:33;;;;;;;;;;;;;;;21.33;57.29;100411.84;2154085;40;114029;-55
2021/07/05 05:12:29;;;;;;;;;;;;;;;21.36;57.44;100414.00;2162432;40;116590;-55
2021/07/05 05:14:31;;;;;;;;;;;;;;;21.40;57.39;100418.63;2202302;39;114380;-54
2021/07/05 05:16:20;;;;;;;;;;;;;;;;;;;;;
2021/07/05 05:18:27;;;;;;;;;;;;;;;;;;;;;
2021/07/05 05:20:14;;;;;;;;;;;;;;;21.52;57.05;100403.97;2201823;39;114737;-55
2021/07/05 05:22:10;;;;;;;;;;;;;;;21.55;57.15;100406.94;2202097;39;114551;-55
2021/07/05 05:26:20;;;;;;;;;;;;;;;21.66;57.05;100408.28;2196242;39;114287;-55
2021/07/05 05:28:08;;;;;;;;;;;;;;;21.71;56.85;100404.47;2195439;39;114270;-55
2021/07/05 05:29:56;;;;;;;;;;;;;;;21.73;56.63;100400.16;2197230;39;114511;-55
2021/07/05 05:31:43;;;;;;;;;;;;;;;21.78;56.79;100402.00;2197064;39;114653;-60
2021/07/05 05:39:02;;;;;;;;;;;;;;;;;;;;;
2021/07/05 05:40:57;;;;;;;;;;;;;;;21.99;56.09;100400.19;2198530;39;113987;-56
2021/07/05 05:42:50;;;;;;;;;;;;;;;22.04;56.28;100393.56;2203448;39;113746;-55
2021/07/05 05:49:53;;;;;;;;;;;;;;;22.16;55.62;100400.19;2211538;39;114106;-55
2021/07/05 05:54:22;;;;;;;;;;;;;;;;;;;;;
2021/07/05 05:56:08;;;;;;;;;;;;;;;22.29;55.26;100392.72;2204040;39;113805;-55
2021/07/05 05:57:43;;;;;;;;;;;;;;;22.33;55.35;100392.88;2211414;39;113896;-55
2021/07/05 05:59:35;;;;;;;;;;;;;;;22.37;55.26;100393.88;2211066;39;113753;-55
2021/07/05 06:01:07;;;;;;;;;;;;;;;22.39;54.95;100395.19;2211198;39;113819;-57
2021/07/05 06:02:39;;;;;;;;;;;;;;;22.42;54.89;100388.88;2211197;39;113645;-57
2021/07/05 06:04:11;;;;;;;;;;;;;;;22.45;54.81;100393.84;2210668;39;113984;-57
2021/07/05 06:05:43;;;;;;;;;;;;;;;22.48;54.93;100398.00;2213425;39;113844;-56
2021/07/05 06:07:14;;;;;;;;;;;;;;;22.51;54.89;100400.13;2210457;39;114889;-57
2021/07/05 06:08:46;;;;;;;;;;;;;;;22.54;54.67;100405.06;2211290;39;114910;-57
2021/07/05 06:10:19;;;;;;;;;;;;;;;22.57;54.67;100418.50;2210302;39;114855;-57
2021/07/05 06:11:50;;;;;;;;;;;;;;;22.59;54.37;100410.53;2210483;39;114819;-57
2021/07/05 06:13:22;;;;;;;;;;;;;;;22.62;54.22;100410.69;2209026;39;114364;-57
2021/07/05 06:14:53;;;;;;;;;;;;;;;22.65;54.19;100417.66;2209378;39;115024;-57
2021/07/05 06:16:25;;;;;;;;;;;;;;;22.67;54.28;100420.94;2208357;39;113897;-57
2021/07/05 06:17:57;;;;;;;;;;;;;;;22.69;53.89;100420.59;2209285;39;115117;-57
2021/07/05 06:19:29;;;;;;;;;;;;;;;22.71;53.95;100419.16;2209839;39;114492;-57
2021/07/05 06:21:01;;;;;;;;;;;;;;;22.73;53.87;100419.63;2210220;39;113963;-57
2021/07/05 06:22:45;;;;;;;;;;;;;;;22.76;53.88;100418.16;2208627;39;114834;-57
2021/07/05 06:24:17;;;;;;;;;;;;;;;22.77;53.76;100420.59;2210036;39;114962;-57
2021/07/05 06:25:49;;;;;;;;;;;;;;;22.80;53.69;100427.59;2210790;39;115330;-57
2021/07/05 06:27:20;;;;;;;;;;;;;;;22.82;53.33;100419.59;2210837;39;115464;-57
2021/07/05 06:28:52;;;;;;;;;;;;;;;22.83;53.44;100410.81;2209707;39;115558;-57
2021/07/05 06:30:23;;;;;;;;;;;;;;;22.84;53.10;100417.28;2210704;39;115582;-57
2021/07/05 06:31:55;;;;;;;;;;;;;;;22.85;52.94;100410.50;2211298;39;115684;-57
2021/07/05 06:33:27;;;;;;;;;;;;;;;22.85;52.86;100416.94;2213592;39;115671;-57
2021/07/05 06:34:59;;;;;;;;;;;;;;;;;;2212709;39;115479;-57
2021/07/05 06:36:31;;;;;;;;;;;;;;;22.89;53.07;100417.09;2210351;39;144962;-57
2021/07/05 06:38:03;;;;;;;;;;;;;;;22.89;53.19;100423.56;2211568;39;115658;-57
2021/07/05 06:39:35;;;;;;;;;;;;;;;22.91;52.96;100420.41;2211512;39;115721;-57
2021/07/05 06:41:06;;;;;;;;;;;;;;;22.91;52.96;100420.41;2211162;39;115142;-57
2021/07/05 06:42:38;;;;;;;;;;;;;;;22.93;52.72;100423.72;2210901;39;115442;-57
2021/07/05 06:44:10;;;;;;;;;;;;;;;22.94;52.85;100416.94;2211996;39;115488;-57
2021/07/05 06:45:42;;;;;;;;;;;;;;;22.95;52.71;100415.75;2210431;39;114559;-57
2021/07/05 06:47:14;;;;;;;;;;;;;;;22.95;52.21;100424.19;2210000;39;114595;-57
2021/07/05 06:48:46;;;;;;;;;;;;;;;22.96;52.22;100423.03;2212431;39;115672;-58
2021/07/05 06:50:17;;;;;;;;;;;;;;;22.95;52.27;100422.19;2209536;39;113838;-60
2021/07/05 06:51:49;;;;;;;;;;;;;;;22.95;51.64;100415.75;2211519;39;113911;-57
2021/07/05 06:53:21;;;;;;;;;;;;;;;22.97;51.79;100419.06;2214875;39;114056;-57
2021/07/05 06:54:52;;;;;;;;;;;;;;;22.96;51.62;100420.22;2212286;39;113633;-57
2021/07/05 06:56:24;;;;;;;;;;;;;;;22.94;51.53;100429.00;2210893;39;113901;-57
2021/07/05 06:57:55;;;;;;;;;;;;;;;22.95;51.02;100421.38;2211273;39;114065;-57
2021/07/05 06:59:27;;;;;;;;;;;;;;;22.96;51.04;100423.03;2211608;39;113780;-57
2021/07/05 07:01:01;;;;;;;;;;;;;;;22.95;51.07;100421.38;2211775;39;113650;-57
2021/07/05 07:02:33;;;;;;;;;;;;;;;22.95;51.08;100427.00;2210856;39;113970;-57
2021/07/05 07:04:05;;;;;;;;;;;;;;;22.95;50.96;100435.47;2211465;39;113726;-57
2021/07/05 07:05:37;;;;;;;;;;;;;;;22.93;51.17;100441.44;2211294;39;113891;-57
2021/07/05 07:07:08;;;;;;;;;;;;;;;22.94;51.09;100445.91;2209415;39;113641;-57
2021/07/05 07:08:40;;;;;;;;;;;;;;;22.93;50.62;100440.63;2209093;39;113776;-57
2021/07/05 07:10:13;;;;;;;;;;;;;;;22.92;51.04;100441.78;2209932;39;113822;-57
2021/07/05 07:11:44;;;;;;;;;;;;;;;22.92;51.11;100444.59;2213157;39;114005;-57
2021/07/05 07:13:17;;;;;;;;;;;;;;;22.94;50.79;100436.66;2207926;39;114671;-57
2021/07/05 07:14:49;;;;;;;;;;;;;;;22.95;50.53;100435.47;2211415;39;114935;-57
2021/07/05 07:16:22;;;;;;;;;;;;;;;22.91;50.46;100420.41;2211803;39;114975;-57
2021/07/05 07:18:00;;;;;;;;;;;;;;;22.93;50.47;100429.34;2211287;39;114986;-57
2021/07/05 07:19:32;;;;;;;;;;;;;;;22.91;50.45;100426.84;2211191;39;116820;-57
2021/07/05 07:21:05;;;;;;;;;;;;;;;22.92;50.35;100428.53;2210690;39;114052;-57
2021/07/05 07:22:37;;;;;;;;;;;;;;;22.91;50.41;100426.03;2212717;39;114917;-57
2021/07/05 07:24:09;;;;;;;;;;;;;;;22.92;50.74;100427.69;2211816;39;114743;-57
2021/07/05 07:25:40;;;;;;;;;;;;;;;22.91;50.67;100443.75;2211231;39;113830;-57
2021/07/05 07:27:12;;;;;;;;;;;;;;;22.92;50.38;100438.97;2211003;39;115258;-57
2021/07/05 07:28:43;;;;;;;;;;;;;;;22.91;50.58;100432.50;2210691;39;114666;-57
2021/07/05 07:30:16;;;;;;;;;;;;;;;22.91;50.54;100429.69;2209268;39;115867;-57
2021/07/05 07:31:47;;;;;;;;;;;;;;;22.90;50.31;100435.63;2208887;39;115346;-57
2021/07/05 07:33:19;;;;;;;;;;;;;;;22.90;50.17;100439.28;2214045;39;114756;-57
2021/07/05 07:34:50;;;;;;;;;;;;;;;22.89;50.43;100446.09;2210354;39;115498;-57
2021/07/05 07:36:26;;;;;;;;;;;;;;;22.89;50.35;100443.28;2210141;39;115618;-58
2021/07/05 07:38:01;;;;;;;;;;;;;;;22.89;50.14;100445.28;2207744;39;116400;-57
2021/07/05 07:39:45;;;;;;;;;;;;;;;22.88;50.11;100443.63;2211291;39;116123;-57
2021/07/05 07:41:21;;;;;;;;;;;;;;;22.87;50.33;100447.59;2207244;39;117817;-57
2021/07/05 07:42:53;;;;;;;;;;;;;;;22.86;50.15;100445.94;2210159;39;115602;-58
2021/07/05 07:44:24;;;;;;;;;;;;;;;22.88;50.09;100452.91;2209552;39;115470;-57
2021/07/05 07:45:56;;;;;;;;;;;;;;;22.89;50.04;100453.72;2208295;39;115575;-57
2021/07/05 07:47:28;;;;;;;;;;;;;;;22.86;50.13;100462.84;2209995;39;115551;-57
2021/07/05 07:49:00;;;;;;;;;;;;;;;22.88;49.90;100454.88;2208563;39;115483;-58
2021/07/05 07:50:32;;;;;;;;;;;;;;;22.88;50.10;100457.69;2209162;39;114549;-57
2021/07/05 07:52:05;;;;;;;;;;;;;;;22.87;49.91;100456.03;2210477;39;114931;-57
2021/07/05 07:53:36;;;;;;;;;;;;;;;22.85;49.84;100455.56;2210632;39;114917;-57
2021/07/05 07:55:09;;;;;;;;;;;;;;;22.86;49.69;100460.00;2212388;39;114973;-57
2021/07/05 07:56:41;;;;;;;;;;;;;;;22.85;49.77;100456.38;2209725;39;114020;-58
2021/07/05 07:58:12;;;;;;;;;;;;;;;22.83;49.69;100461.53;2209437;39;113845;-57
2021/07/05 07:59:45;;;;;;;;;;;;;;;22.83;49.56;100452.25;2211008;39;114434;-57
2021/07/05 08:01:17;;;;;;;;;;;;;;;22.83;49.53;100450.25;2210224;39;113869;-57
2021/07/05 08:02:48;;;;;;;;;;;;;;;22.84;49.57;100460.38;2208819;39;113910;-57
2021/07/05 08:04:20;;;;;;;;;;;;;;;;;;2209920;39;113643;-57
2021/07/05 08:05:54;;;;;;;;;;;;;;;22.83;49.47;100455.06;2208486;39;127786;-57
2021/07/05 08:07:26;;;;;;;;;;;;;;;22.81;49.26;100452.56;2210433;39;113913;-58
2021/07/05 08:08:59;;;;;;;;;;;;;;;22.80;49.60;100450.94;2211317;39;113660;-57
2021/07/05 08:10:34;;;;;;;;;;;;;;;22.80;49.67;100455.75;2210580;39;114007;-57
2021/07/05 08:12:07;;;;;;;;;;;;;;;22.80;49.44;100456.56;2210673;39;113690;-57
2021/07/05 08:13:39;;;;;;;;;;;;;;;22.79;49.14;100454.91;2211277;39;113878;-57
2021/07/05 08:15:12;;;;;;;;;;;;;;;22.80;48.80;100450.13;2210473;39;113944;-57
2021/07/05 08:16:43;;;;;;;;;;;;;;;22.78;48.95;100446.78;2213771;39;113577;-56
2021/07/05 08:18:15;;;;;;;;;;;;;;;22.79;48.99;100442.81;2211383;39;114890;-57
2021/07/05 08:19:47;;;;;;;;;;;;;;;22.77;49.19;100445.13;2211307;39;115280;-57
2021/07/05 08:21:19;;;;;;;;;;;;;;;22.75;49.17;100445.50;2210062;39;114975;-57
2021/07/05 08:22:55;;;;;;;;;;;;;;;22.75;49.24;100439.03;2211550;39;114768;-57
2021/07/05 08:24:26;;;;;;;;;;;;;;;22.73;49.06;100422.44;2209030;39;114862;-57
2021/07/05 08:25:58;;;;;;;;;;;;;;;22.78;48.88;100427.91;2211380;39;114752;-57
2021/07/05 08:27:31;;;;;;;;;;;;;;;22.71;48.94;100441.69;2211528;39;115384;-57
2021/07/05 08:29:03;;;;;;;;;;;;;;;22.74;49.13;100432.56;2209532;39;115671;-57
2021/07/05 08:30:35;;;;;;;;;;;;;;;22.70;49.19;100428.75;2210932;39;115304;-57
2021/07/05 08:32:07;;;;;;;;;;;;;;;22.72;49.03;100423.59;2209794;39;115172;-57
2021/07/05 08:33:38;;;;;;;;;;;;;;;22.71;48.93;100426.78;2209796;39;114815;-57
2021/07/05 08:35:10;;;;;;;;;;;;;;;22.70;49.11;100422.31;2210201;39;114990;-57
2021/07/05 08:36:42;;;;;;;;;;;;;;;22.69;49.09;100427.06;2210448;39;114170;-56
2021/07/05 08:38:13;;;;;;;;;;;;;;;22.69;49.13;100429.06;2215176;39;114732;-57
2021/07/05 08:39:45;;;;;;;;;;;;;;;22.71;48.68;100421.16;2211064;39;115528;-57
2021/07/05 08:41:17;;;;;;;;;;;;;;;22.68;48.76;100419.78;2209245;39;115773;-57
2021/07/05 08:42:48;;;;;;;;;;;;;;;22.69;48.64;100417.78;2211074;39;114930;-57
2021/07/05 08:44:21;;;;;;;;;;;;;;;22.67;48.75;100414.50;2211675;39;115660;-57
2021/07/05 08:46:12;;;;;;;;;;;;;;;22.68;48.59;100411.34;2211662;39;115369;-57
2021/07/05 08:47:47;;;;;;;;;;;;;;;22.64;48.54;100410.34;2211352;39;115684;-57
2021/07/05 08:49:19;;;;;;;;;;;;;;;22.63;48.64;100409.53;2211027;39;114694;-57
2021/07/05 08:50:50;;;;;;;;;;;;;;;22.61;48.63;100394.97;2211081;39;115913;-58
2021/07/05 08:52:22;;;;;;;;;;;;;;;22.60;48.67;100396.13;2211511;39;115450;-57
2021/07/05 08:53:55;;;;;;;;;;;;;;;22.63;48.40;100387.00;2211107;39;115574;-57
2021/07/05 08:55:28;;;;;;;;;;;;;;;22.63;48.42;100397.44;2211082;39;115522;-57
2021/07/05 08:57:00;;;;;;;;;;;;;;;22.64;48.24;100404.72;2211637;39;115352;-57